Time;durP1;ratioP1;P1;durP2;ratioP2;P2;SDS_P1;SDS_P2;PMS_P1;PMS_P2;Temp;Humidity;BMP_temperature;BMP_pressure;BME280_temperature;BME280_humidity;BME280_pressure;Samples;Min_cycle;Max_cycle;Signal;HPM_P1;HPM_P2
2021/06/07 00:01:14;;;;;;;8.03;4.20;;;;;;;14.56;64.53;100405.84;126243;1099;104246;-81
2021/06/07 00:03:45;;;;;;;8.27;4.13;;;;;;;14.50;64.39;100402.22;126273;1097;104143;-81
2021/06/07 00:06:16;;;;;;;11.77;4.03;;;;;;;14.45;64.64;100399.49;126292;1099;104216;-81
2021/06/07 00:08:46;;;;;;;7.27;4.10;;;;;;;14.44;64.21;100404.75;126263;1096;104238;-80
2021/06/07 00:11:18;;;;;;;7.30;3.90;;;;;;;14.41;64.99;100409.97;126251;1099;104184;-80
2021/06/07 00:13:49;;;;;;;7.07;4.00;;;;;;;14.39;64.88;100405.53;126347;1096;104191;-81
2021/06/07 00:16:19;;;;;;;6.03;4.03;;;;;;;14.39;64.73;100402.90;126305;1096;104145;-80
2021/06/07 00:18:50;;;;;;;5.95;3.95;;;;;;;14.38;65.13;100403.78;126325;1096;104185;-81
2021/06/07 00:21:26;;;;;;;9.63;4.53;;;;;;;14.35;64.23;100408.09;126274;1099;104207;-80
2021/06/07 00:23:58;;;;;;;8.07;4.03;;;;;;;14.32;65.11;100400.11;126299;1098;104268;-82
2021/06/07 00:26:29;;;;;;;8.10;3.93;;;;;;;14.30;65.54;100402.72;126232;1099;104185;-80
2021/06/07 00:28:59;;;;;;;8.80;3.93;;;;;;;14.30;64.89;100400.09;126228;1099;104222;-79
2021/06/07 00:31:29;;;;;;;10.13;4.00;;;;;;;14.28;65.31;100403.58;126184;1099;104261;-80
2021/06/07 00:34:00;;;;;;;5.87;3.57;;;;;;;14.27;65.51;100397.39;126202;1098;104207;-79
2021/06/07 00:36:30;;;;;;;5.93;3.90;;;;;;;14.26;64.80;100406.19;126181;1099;104225;-79
2021/06/07 00:39:01;;;;;;;10.30;3.83;;;;;;;14.23;65.13;100399.94;125942;1099;104360;-80
2021/06/07 00:41:31;;;;;;;7.23;3.73;;;;;;;14.24;65.10;100401.73;126104;1099;104169;-80
2021/06/07 00:44:06;;;;;;;6.00;3.77;;;;;;;14.22;65.10;100404.34;125311;1099;104229;-80
2021/06/07 00:46:37;;;;;;;9.17;3.90;;;;;;;14.19;65.92;100393.72;125440;1099;104153;-80
2021/06/07 00:49:08;;;;;;;8.70;4.00;;;;;;;14.16;65.00;100391.02;126126;1099;104248;-80
2021/06/07 00:51:40;;;;;;;9.67;4.20;;;;;;;14.15;64.99;100397.19;126193;1099;104172;-79
2021/06/07 00:54:11;;;;;;;7.70;4.07;;;;;;;14.16;65.98;100398.94;126178;1099;104437;-80
2021/06/07 00:56:42;;;;;;;9.00;3.67;;;;;;;14.16;65.98;100389.30;126172;1098;104316;-80
2021/06/07 00:59:13;;;;;;;7.65;3.90;;;;;;;14.17;65.53;100390.17;126155;1099;104330;-80
2021/06/07 01:01:44;;;;;;;7.77;4.27;;;;;;;14.15;65.28;100391.91;125193;1102;104524;-80
2021/06/07 01:04:14;;;;;;;7.57;4.00;;;;;;;14.13;65.62;100394.52;126282;1099;104140;-80
2021/06/07 01:06:44;;;;;;;6.40;3.73;;;;;;;14.13;65.85;100393.60;126311;1099;104242;-79
2021/06/07 01:09:14;;;;;;;6.67;3.87;;;;;;;14.15;66.02;100389.27;126208;1098;104303;-81
2021/06/07 01:11:45;;;;;;;9.67;3.80;;;;;;;14.15;66.17;100394.55;126252;1099;104608;-81
2021/06/07 01:14:15;;;;;;;8.47;4.73;;;;;;;14.16;65.76;100405.12;126295;1099;104729;-81
2021/06/07 01:16:45;;;;;;;6.67;4.20;;;;;;;14.13;65.81;100398.88;126285;1099;104137;-81
2021/06/07 01:19:18;;;;;;;6.03;3.83;;;;;;;14.11;65.56;100403.25;126295;1099;104197;-80
2021/06/07 01:21:49;;;;;;;6.53;3.87;;;;;;;14.13;65.64;100398.88;126248;1099;104210;-80
2021/06/07 01:24:19;;;;;;;5.90;3.83;;;;;;;14.12;65.82;100407.67;126255;1099;104143;-81
2021/06/07 01:26:49;;;;;;;8.40;3.90;;;;;;;14.09;66.32;100404.98;126281;1099;104868;-81
2021/06/07 01:29:19;;;;;;;7.80;3.80;;;;;;;14.07;66.32;100402.31;126136;1099;104194;-80
2021/06/07 01:31:49;;;;;;;7.97;4.10;;;;;;;14.09;66.51;100399.70;125367;1099;104425;-79
2021/06/07 01:34:19;;;;;;;7.10;3.50;;;;;;;14.06;66.54;100403.16;125420;1099;104319;-79
2021/06/07 01:36:49;;;;;;;7.17;3.60;;;;;;;14.03;66.45;100392.54;126170;1099;104313;-79
2021/06/07 01:39:26;;;;;;;8.17;3.63;;;;;;;14.03;66.07;100398.70;126153;1099;104182;-79
2021/06/07 01:41:57;;;;;;;7.93;3.60;;;;;;;14.01;66.28;100400.42;125402;1099;104322;-79
2021/06/07 01:44:27;;;;;;;7.47;3.50;;;;;;;14.01;66.39;100397.78;125410;1099;104222;-80
2021/06/07 01:46:57;;;;;;;6.27;3.87;;;;;;;14.00;66.75;100395.12;126200;1099;104328;-80
2021/06/07 01:49:27;;;;;;;5.93;3.57;;;;;;;13.99;66.91;100406.52;126161;1099;104174;-80
2021/06/07 01:51:57;;;;;;;6.90;3.73;;;;;;;13.98;66.45;100400.36;126121;1098;109732;-79
2021/06/07 01:54:28;;;;;;;5.57;3.30;;;;;;;14.02;66.77;100401.30;126175;1099;104357;-79
2021/06/07 01:56:58;;;;;;;7.93;3.60;;;;;;;14.00;66.93;100395.99;126182;1099;104316;-79
2021/06/07 01:59:28;;;;;;;6.43;3.77;;;;;;;14.00;66.53;100403.03;126207;1098;104406;-80
2021/06/07 02:01:58;;;;;;;7.10;3.90;;;;;;;14.00;66.76;100405.67;126265;1099;104149;-80
2021/06/07 02:04:28;;;;;;;9.73;3.73;;;;;;;13.98;67.53;100407.40;126275;1097;104171;-81
2021/06/07 02:06:59;;;;;;;9.50;3.63;;;;;;;13.99;67.02;100414.43;126303;1099;104187;-81
2021/06/07 02:09:29;;;;;;;6.53;3.77;;;;;;;13.99;67.15;100411.80;126229;1099;104254;-80
2021/06/07 02:11:59;;;;;;;8.80;3.70;;;;;;;13.97;67.12;100409.13;126253;1099;104219;-81
2021/06/07 02:14:30;;;;;;;6.13;3.60;;;;;;;13.98;67.47;100417.95;126338;1096;104171;-80
2021/06/07 02:17:00;;;;;;;7.07;3.60;;;;;;;13.96;66.81;100417.01;126255;1099;104143;-80
2021/06/07 02:19:30;;;;;;;5.40;3.33;;;;;;;13.96;67.26;100411.73;126316;1096;104131;-80
2021/06/07 02:22:01;;;;;;;6.70;3.13;;;;;;;13.99;67.58;100402.16;126263;1096;105578;-80
2021/06/07 02:24:31;;;;;;;7.57;3.43;;;;;;;14.03;67.91;100408.38;126359;1099;104207;-80
2021/06/07 02:27:01;;;;;;;8.67;3.40;;;;;;;14.06;67.58;100405.80;126303;1098;104155;-80
2021/06/07 02:29:31;;;;;;;8.63;3.50;;;;;;;14.09;67.50;100402.34;126285;1099;104593;-79
2021/06/07 02:32:01;;;;;;;6.97;3.43;;;;;;;14.08;67.06;100406.70;126291;1099;104133;-81
2021/06/07 02:34:31;;;;;;;7.23;3.30;;;;;;;14.09;67.23;100402.34;126298;1099;104168;-79
2021/06/07 02:37:01;;;;;;;3.90;3.00;;;;;;;14.07;67.80;100409.31;126301;1096;104159;-79
2021/06/07 02:39:31;;;;;;;7.63;3.47;;;;;;;14.06;67.81;100408.43;126298;1096;104694;-80
2021/06/07 02:42:03;;;;;;;6.33;3.30;;;;;;;14.05;68.05;100409.28;126283;1096;104290;-79
2021/06/07 02:44:33;;;;;;;7.10;3.43;;;;;;;14.07;67.35;100417.22;126275;1099;104239;-80
2021/06/07 02:47:05;;;;;;;7.73;3.33;;;;;;;14.09;67.68;100412.89;126349;1099;104153;-81
2021/06/07 02:49:35;;;;;;;6.50;3.40;;;;;;;14.08;68.02;100417.26;126340;1098;104235;-79
2021/06/07 02:52:05;;;;;;;5.63;3.33;;;;;;;14.10;67.87;100414.65;126297;1096;104306;-81
2021/06/07 02:54:36;;;;;;;6.37;3.47;;;;;;;14.12;67.58;100423.51;126277;1096;104277;-80
2021/06/07 02:57:08;;;;;;;4.50;3.17;;;;;;;14.13;67.29;100419.98;126220;1096;104235;-80
2021/06/07 02:59:38;;;;;;;9.40;3.77;;;;;;;14.14;67.59;100432.34;126223;1096;104204;-81
2021/06/07 03:02:08;;;;;;;11.93;3.90;;;;;;;14.14;67.79;100425.30;126227;1096;104222;-81
2021/06/07 03:04:38;;;;;;;8.67;3.40;;;;;;;14.19;67.57;100425.39;126306;1099;104239;-80
2021/06/07 03:07:09;;;;;;;7.97;3.53;;;;;;;14.24;68.00;100423.72;126206;1099;104156;-81
2021/06/07 03:09:39;;;;;;;9.20;3.57;;;;;;;14.26;67.24;100427.30;126335;1099;104214;-81
2021/06/07 03:12:10;;;;;;;8.80;3.30;;;;;;;14.28;68.21;100422.05;126266;1099;105560;-81
2021/06/07 03:14:43;;;;;;;5.77;3.33;;;;;;;14.30;68.33;100434.39;126339;1099;104211;-79
2021/06/07 03:17:13;;;;;;;7.63;3.60;;;;;;;14.34;68.35;100430.09;126304;1099;104262;-80
2021/06/07 03:19:43;;;;;;;8.63;3.90;;;;;;;14.39;67.95;100431.94;126254;1099;104287;-81
2021/06/07 03:22:14;;;;;;;6.87;3.30;;;;;;;14.43;67.91;100432.91;126275;1099;104143;-80
2021/06/07 03:24:44;;;;;;;4.80;3.20;;;;;;;14.46;68.44;100432.97;126294;1099;104223;-81
2021/06/07 03:27:14;;;;;;;5.30;3.50;;;;;;;14.49;68.16;100435.66;126244;1099;104354;-81
2021/06/07 03:29:44;;;;;;;7.30;3.37;;;;;;;14.52;67.93;100429.53;126301;1098;104150;-81
2021/06/07 03:32:15;;;;;;;11.30;3.67;;;;;;;14.55;68.24;100426.95;126211;1099;104197;-80
2021/06/07 03:34:45;;;;;;;9.57;3.73;;;;;;;14.59;68.56;100425.27;126297;1099;104156;-81
2021/06/07 03:37:15;;;;;;;5.20;3.40;;;;;;;14.64;68.11;100429.78;126326;1098;104222;-81
2021/06/07 03:39:45;;;;;;;8.85;3.30;;;;;;;14.70;68.21;100427.25;126286;1099;104197;-81
2021/06/07 03:42:16;;;;;;;7.83;3.67;;;;;;;14.78;68.50;100429.16;126256;1099;104140;-79
2021/06/07 03:44:46;;;;;;;11.63;3.63;;;;;;;14.84;68.05;100429.27;126287;1099;104140;-80
2021/06/07 03:47:16;;;;;;;9.13;4.13;;;;;;;14.89;67.85;100425.81;126353;1099;104166;-79
2021/06/07 03:49:46;;;;;;;6.43;3.30;;;;;;;14.95;68.62;100425.04;126300;1098;104185;-79
2021/06/07 03:52:16;;;;;;;6.20;3.50;;;;;;;15.01;68.70;100430.42;126148;1099;104137;-78
2021/06/07 03:54:47;;;;;;;7.80;3.50;;;;;;;15.06;67.83;100430.50;126090;1099;104246;-78
2021/06/07 03:57:17;;;;;;;8.27;3.60;;;;;;;15.10;67.67;100441.15;126057;1099;104281;-78
2021/06/07 03:59:48;;;;;;;5.77;3.43;;;;;;;15.15;68.17;100432.42;126078;1099;104136;-77
2021/06/07 04:02:20;;;;;;;7.13;3.40;;;;;;;15.21;67.85;100440.45;126028;1099;104226;-76
2021/06/07 04:04:50;;;;;;;10.33;3.90;;;;;;;15.25;68.50;100429.03;126092;1099;105757;-77
2021/06/07 04:07:20;;;;;;;9.80;3.80;;;;;;;15.31;67.92;100429.12;126168;1099;104281;-77
2021/06/07 04:09:50;;;;;;;8.40;3.83;;;;;;;15.38;68.73;100431.02;126182;1099;104306;-76
2021/06/07 04:12:22;;;;;;;7.63;3.80;;;;;;;15.43;68.72;100426.67;126315;1099;104146;-78
2021/06/07 04:14:53;;;;;;;7.97;3.77;;;;;;;15.48;68.15;100436.44;125983;1096;110601;-80
2021/06/07 04:17:26;;;;;;;10.13;3.47;;;;;;;15.52;68.25;100438.23;126226;1099;104585;-79
2021/06/07 04:19:59;;;;;;;8.75;3.62;;;;;;;15.56;68.60;100429.49;126231;1096;104166;-78
2021/06/07 04:22:31;;;;;;;11.53;3.93;;;;;;;15.60;67.93;100429.56;126250;1099;104163;-78
2021/06/07 04:25:01;;;;;;;9.80;3.60;;;;;;;15.65;67.83;100429.63;126262;1096;104146;-78
2021/06/07 04:27:31;;;;;;;9.30;3.80;;;;;;;15.72;67.78;100426.20;126284;1099;104169;-77
2021/06/07 04:30:05;;;;;;;9.60;3.80;;;;;;;15.79;68.25;100428.08;126328;1099;104144;-78
2021/06/07 04:32:36;;;;;;;9.13;3.95;;;;;;;15.85;67.74;100432.58;126229;1098;104194;-77
2021/06/07 04:35:09;;;;;;;5.93;3.50;;;;;;;15.93;68.68;100430.03;126188;1096;104345;-77
2021/06/07 04:37:42;;;;;;;8.10;4.10;;;;;;;16.03;68.69;100431.90;126298;1096;104144;-77
2021/06/07 04:40:13;;;;;;;8.67;3.90;;;;;;;16.10;68.07;100438.18;126342;1096;104243;-78
2021/06/07 04:42:44;;;;;;;8.70;3.87;;;;;;;16.18;68.38;100437.38;126331;1096;104136;-78
2021/06/07 04:45:15;;;;;;;10.40;3.63;;;;;;;16.26;68.22;100439.24;126262;1096;104175;-77
2021/06/07 04:47:46;;;;;;;9.73;3.60;;;;;;;16.31;67.77;100449.03;126269;1097;104201;-76
2021/06/07 04:50:20;;;;;;;9.37;3.97;;;;;;;16.35;68.52;100449.94;126296;1099;104165;-77
2021/06/07 04:53:00;;;;;;;11.17;3.87;;;;;;;16.41;67.86;100449.09;126297;1098;104239;-77
2021/06/07 04:55:34;;;;;;;13.17;4.40;;;;;;;16.46;68.24;100450.94;126190;1096;104582;-75
2021/06/07 04:58:11;;;;;;;12.97;4.37;;;;;;;16.53;67.82;100454.53;126093;1099;104268;-75
2021/06/07 05:00:46;;;;;;;16.50;4.60;;;;;;;16.53;67.44;100449.23;126121;1099;104205;-78
2021/06/07 05:03:16;;;;;;;12.03;4.80;;;;;;;16.57;67.69;100452.83;126292;1096;104197;-77
2021/06/07 05:05:49;;;;;;;12.23;3.80;;;;;;;16.63;68.35;100453.77;126138;1099;104155;-77
2021/06/07 05:08:20;;;;;;;9.27;4.17;;;;;;;16.73;67.63;100462.69;126134;1099;104235;-76
2021/06/07 05:10:50;;;;;;;7.80;4.03;;;;;;;16.81;68.12;100465.41;126238;1097;104236;-76
2021/06/07 05:13:21;;;;;;;10.57;4.10;;;;;;;16.86;67.76;100463.72;126217;1099;104290;-77
2021/06/07 05:15:55;;;;;;;10.77;3.80;;;;;;;16.88;67.44;100464.64;126158;1099;104219;-76
2021/06/07 05:18:26;;;;;;;9.88;3.50;;;;;;;16.93;67.74;100460.27;126151;1098;104181;-76
2021/06/07 05:20:56;;;;;;;6.53;3.57;;;;;;;16.97;67.94;100455.87;126208;1097;104159;-77
2021/06/07 05:23:26;;;;;;;10.23;3.90;;;;;;;17.00;67.29;100450.59;126142;1099;104144;-77
2021/06/07 05:25:58;;;;;;;8.93;3.67;;;;;;;17.04;67.42;100447.11;126112;1098;104149;-77
2021/06/07 05:28:34;;;;;;;6.50;3.40;;;;;;;17.09;67.47;100442.72;126164;1099;104136;-78
2021/06/07 05:31:06;;;;;;;9.10;3.80;;;;;;;17.15;67.45;100445.42;126102;1099;104217;-77
2021/06/07 05:33:37;;;;;;;8.20;4.23;;;;;;;17.21;67.64;100447.24;126168;1099;104220;-78
2021/06/07 05:36:12;;;;;;;11.80;3.90;;;;;;;17.28;67.66;100448.16;126116;1099;104201;-77
2021/06/07 05:38:42;;;;;;;12.90;4.03;;;;;;;17.35;67.58;100447.34;126075;1099;104223;-77
2021/06/07 05:41:13;;;;;;;9.03;3.50;;;;;;;17.41;67.29;100442.09;126168;1099;104149;-77
2021/06/07 05:43:46;;;;;;;12.40;3.80;;;;;;;17.48;67.44;100438.58;126179;1099;104171;-76
2021/06/07 05:46:17;;;;;;;9.53;3.90;;;;;;;17.55;67.27;100435.09;126146;1099;104187;-78
2021/06/07 05:48:48;;;;;;;10.97;4.13;;;;;;;17.65;67.21;100433.37;126163;1098;104233;-78
2021/06/07 05:51:21;;;;;;;8.33;3.80;;;;;;;17.75;67.30;100444.95;126174;1099;104210;-78
2021/06/07 05:53:53;;;;;;;8.77;3.93;;;;;;;17.81;67.10;100434.38;126136;1099;104147;-77
2021/06/07 05:56:29;;;;;;;11.80;4.30;;;;;;;17.88;67.11;100436.19;126119;1099;104178;-77
2021/06/07 05:58:59;;;;;;;16.10;4.57;;;;;;;17.94;67.08;100433.56;126032;1099;104182;-77
2021/06/07 06:01:32;;;;;;;10.67;4.13;;;;;;;18.02;66.82;100440.69;126124;1099;104216;-77
2021/06/07 06:04:05;;;;;;;11.20;4.40;;;;;;;18.08;67.06;100446.02;126016;1099;104168;-78
2021/06/07 06:06:36;;;;;;;10.05;4.30;;;;;;;18.14;66.87;100449.58;126053;1099;104185;-79
2021/06/07 06:09:08;;;;;;;11.93;4.00;;;;;;;18.22;66.82;100449.61;126179;1099;104415;-78
2021/06/07 06:11:41;;;;;;;9.30;4.10;;;;;;;18.28;66.44;100441.66;126040;1099;104328;-77
2021/06/07 06:14:15;;;;;;;10.13;3.77;;;;;;;18.38;66.50;100447.00;126114;1099;104236;-80
2021/06/07 06:16:46;;;;;;;7.73;3.83;;;;;;;18.44;66.67;100444.36;126001;1099;104259;-78
2021/06/07 06:19:22;;;;;;;12.47;3.60;;;;;;;18.49;66.46;100443.47;126100;1099;104701;-78
2021/06/07 06:21:55;;;;;;;13.27;3.87;;;;;;;18.54;66.46;100446.14;126024;1099;104182;-78
2021/06/07 06:24:29;;;;;;;11.57;3.87;;;;;;;18.65;66.37;100443.50;125319;1099;105439;-79
2021/06/07 06:27:00;;;;;;;18.97;4.40;;;;;;;18.75;66.32;100442.65;125350;1099;104261;-78
2021/06/07 06:29:32;;;;;;;9.47;3.57;;;;;;;18.85;66.44;100441.82;125967;1099;104226;-77
2021/06/07 06:32:06;;;;;;;8.73;3.60;;;;;;;18.97;66.28;100445.36;125946;1099;104242;-78
2021/06/07 06:34:40;;;;;;;7.03;3.67;;;;;;;19.06;65.83;100432.06;125960;1099;104166;-77
2021/06/07 06:37:12;;;;;;;12.07;4.00;;;;;;;19.13;65.60;100425.84;126032;1099;104149;-78
2021/06/07 06:39:45;;;;;;;13.23;3.53;;;;;;;19.24;66.13;100424.95;126109;1099;104173;-79
2021/06/07 06:42:20;;;;;;;13.03;3.80;;;;;;;19.34;66.12;100424.07;126066;1099;104309;-76
2021/06/07 06:44:54;;;;;;;7.93;3.53;;;;;;;19.46;65.93;100424.05;126071;1099;104590;-76
2021/06/07 06:47:26;;;;;;;11.00;3.50;;;;;;;19.61;65.05;100433.76;126058;1099;104214;-76
2021/06/07 06:49:59;;;;;;;8.13;3.57;;;;;;;19.80;65.17;100433.74;126002;1099;104172;-76
2021/06/07 06:52:32;;;;;;;8.80;3.47;;;;;;;19.92;65.14;100437.23;126120;1099;104133;-78
2021/06/07 06:55:05;;;;;;;8.57;3.53;;;;;;;20.04;64.44;100433.66;126086;1098;104684;-78
2021/06/07 06:57:41;;;;;;;10.03;3.60;;;;;;;20.16;65.16;100438.02;126058;1099;104142;-79
2021/06/07 07:00:15;;;;;;;7.50;3.57;;;;;;;20.33;64.75;100437.06;126047;1099;104178;-78
2021/06/07 07:02:49;;;;;;;6.63;3.50;;;;;;;20.50;65.28;100432.52;125936;1098;104243;-77
2021/06/07 07:05:21;;;;;;;6.93;3.40;;;;;;;20.68;65.07;100439.55;126093;1099;104178;-79
2021/06/07 07:07:53;;;;;;;10.80;3.70;;;;;;;20.82;64.41;100439.45;126102;1096;104150;-77
2021/06/07 07:10:27;;;;;;;9.43;3.80;;;;;;;20.94;64.07;100426.03;126123;1099;104171;-79
2021/06/07 07:12:59;;;;;;;9.40;4.00;;;;;;;21.06;63.52;100435.70;126065;1096;104239;-78
2021/06/07 07:15:31;;;;;;;9.73;3.97;;;;;;;21.17;62.75;100430.27;125942;1096;104246;-77
2021/06/07 07:18:05;;;;;;;13.23;3.30;;;;;;;21.34;63.15;100435.45;125933;1099;104182;-78
2021/06/07 07:20:39;;;;;;;8.90;3.63;;;;;;;21.53;63.27;100431.74;125942;1099;104850;-77
2021/06/07 07:23:11;;;;;;;8.03;3.27;;;;;;;21.68;62.54;100436.02;125917;1099;104171;-78
2021/06/07 07:25:47;;;;;;;15.03;3.87;;;;;;;21.83;62.59;100440.31;125968;1099;104719;-77
2021/06/07 07:28:19;;;;;;;11.00;3.90;;;;;;;21.97;62.00;100441.91;126086;1096;104233;-77
2021/06/07 07:30:51;;;;;;;11.73;3.20;;;;;;;22.17;61.79;100442.54;125966;1099;104313;-77
2021/06/07 07:33:22;;;;;;;14.37;3.97;;;;;;;22.39;61.53;100442.29;126065;1096;104165;-76
2021/06/07 07:35:54;;;;;;;6.17;3.60;;;;;;;22.58;61.55;100443.81;126234;1099;104127;-78
2021/06/07 07:38:26;;;;;;;9.15;3.77;;;;;;;22.77;60.16;100444.41;126068;1097;104165;-79
2021/06/07 07:41:01;;;;;;;11.60;3.70;;;;;;;23.04;60.36;100442.19;126135;1099;104746;-78
2021/06/07 07:43:36;;;;;;;10.33;4.03;;;;;;;23.25;60.38;100442.75;126248;1099;104162;-76
2021/06/07 07:46:07;;;;;;;11.12;4.33;;;;;;;23.34;60.05;100445.27;126130;1099;104235;-78
2021/06/07 07:48:40;;;;;;;10.43;3.33;;;;;;;23.49;59.58;100436.09;126118;1099;104159;-77
2021/06/07 07:51:12;;;;;;;7.63;3.20;;;;;;;23.63;59.58;100438.52;126265;1096;104140;-78
2021/06/07 07:53:43;;;;;;;9.07;3.40;;;;;;;23.78;59.51;100431.95;126244;1099;104159;-78
2021/06/07 07:56:16;;;;;;;5.03;3.30;;;;;;;23.91;57.86;100446.91;126165;1099;104195;-78
2021/06/07 07:58:49;;;;;;;11.50;3.93;;;;;;;23.96;57.85;100439.66;125873;1099;104063;-78
2021/06/07 08:01:22;;;;;;;6.00;3.10;;;;;;;24.09;57.21;100447.44;126137;1099;104264;-78
2021/06/07 08:03:53;;;;;;;7.70;3.60;;;;;;;24.31;57.20;100451.44;126168;1097;104195;-77
2021/06/07 08:06:26;;;;;;;8.90;3.50;;;;;;;24.50;57.40;100448.36;126102;1099;104190;-75
2021/06/07 08:08:56;;;;;;;12.18;3.60;;;;;;;24.65;57.09;100445.36;126052;1099;104338;-76
2021/06/07 08:11:27;;;;;;;8.23;3.20;;;;;;;24.74;56.53;100445.14;126139;1099;104165;-76
2021/06/07 08:13:58;;;;;;;6.97;3.10;;;;;;;24.83;56.36;100445.83;126174;1099;104217;-76
2021/06/07 08:16:29;;;;;;;10.23;3.67;;;;;;;24.91;55.42;100441.15;126091;1099;104229;-76
2021/06/07 08:19:03;;;;;;;8.40;3.40;;;;;;;24.99;55.92;100444.52;126050;1099;104133;-75
2021/06/07 08:21:34;;;;;;;6.83;3.20;;;;;;;25.06;54.91;100435.40;126143;1099;104377;-77
2021/06/07 08:24:12;;;;;;;8.30;3.17;;;;;;;25.07;54.63;100447.01;126124;1099;104162;-76
2021/06/07 08:26:43;;;;;;;11.60;3.60;;;;;;;25.08;54.40;100443.41;126168;1099;104278;-76
2021/06/07 08:29:15;;;;;;;7.70;3.13;;;;;;;25.21;54.09;100439.51;126121;1099;104136;-75
2021/06/07 08:31:53;;;;;;;5.90;3.07;;;;;;;25.28;53.97;100440.22;126037;1099;104293;-77
2021/06/07 08:34:27;;;;;;;7.70;3.30;;;;;;;25.30;53.52;100433.03;126148;1099;104168;-78
2021/06/07 08:37:01;;;;;;;7.70;3.20;;;;;;;25.34;53.25;100440.09;126144;1099;104133;-77
2021/06/07 08:39:34;;;;;;;9.10;3.62;;;;;;;25.46;53.33;100434.40;126168;1099;104201;-76
2021/06/07 08:42:10;;;;;;;7.73;3.87;;;;;;;25.48;52.66;100437.91;126147;1099;104143;-76
2021/06/07 08:44:42;;;;;;;8.43;3.20;;;;;;;25.48;51.91;100443.28;126313;1099;104134;-78
2021/06/07 08:47:16;;;;;;;5.93;3.27;;;;;;;25.53;52.12;100442.30;126103;1099;105251;-76
2021/06/07 08:49:49;;;;;;;7.57;3.10;;;;;;;25.59;52.62;100442.12;126073;1099;104162;-76
2021/06/07 08:52:22;;;;;;;4.55;3.15;;;;;;;25.64;52.02;100450.93;126233;1099;104143;-76
2021/06/07 08:54:54;;;;;;;4.77;3.13;;;;;;;25.64;50.81;100445.56;126119;1099;104206;-76
2021/06/07 08:57:28;;;;;;;6.83;3.40;;;;;;;25.57;51.01;100454.70;126273;1098;101788;-74
2021/06/07 09:00:00;;;;;;;7.33;2.90;;;;;;;25.57;50.33;100441.27;126244;1099;104265;-75
2021/06/07 09:02:39;;;;;;;7.33;2.83;;;;;;;25.57;50.62;100446.64;125956;1098;102864;-77
2021/06/07 09:05:12;;;;;;;8.70;3.10;;;;;;;25.67;50.80;100441.91;125969;1099;104204;-76
2021/06/07 09:07:54;;;;;;;;;;;;;;;25.67;49.86;100437.41;126025;1098;104217;-76
2021/06/07 09:10:26;;;;;;;4.50;2.83;;;;;;;25.73;49.78;100444.44;126081;1099;104223;-76
2021/06/07 09:13:00;;;;;;;6.10;3.07;;;;;;;25.71;49.37;100447.16;125208;1102;104178;-75
2021/06/07 09:15:37;;;;;;;7.03;3.17;;;;;;;25.70;49.87;100440.02;125137;1102;104255;-75
2021/06/07 09:18:12;;;;;;;7.57;3.00;;;;;;;25.69;48.88;100430.17;125239;1099;104217;-76
2021/06/07 09:20:44;;;;;;;6.03;3.13;;;;;;;25.65;49.23;100433.90;125158;1099;104248;-76
2021/06/07 09:23:17;;;;;;;7.28;3.80;;;;;;;25.79;49.94;100438.89;125209;1099;104283;-78
2021/06/07 09:25:49;;;;;;;6.57;2.97;;;;;;;25.90;48.99;100435.86;125149;1102;104174;-76
2021/06/07 09:28:22;;;;;;;11.57;3.30;;;;;;;25.93;48.55;100439.36;125153;1102;104315;-77
2021/06/07 09:30:55;;;;;;;6.80;3.27;;;;;;;25.95;48.94;100425.88;125156;1100;104265;-77
2021/06/07 09:33:37;;;;;;;8.63;3.55;;;;;;;25.93;48.33;100428.61;125251;1099;104155;-76
2021/06/07 09:36:23;;;;;;;5.33;3.30;;;;;;;25.72;48.27;100438.16;126014;1099;104315;-76
2021/06/07 09:39:10;;;;;;;9.77;3.00;;;;;;;25.58;47.95;100432.29;126157;1099;104325;-77
2021/06/07 09:41:56;;;;;;;5.50;2.93;;;;;;;25.38;47.22;100438.20;126032;1099;107071;-77
2021/06/07 09:44:31;;;;;;;9.03;3.30;;;;;;;25.28;47.53;100426.80;126186;1098;104303;-76
2021/06/07 09:47:22;;;;;;;6.50;3.17;;;;;;;25.21;47.23;100427.86;126163;1099;104211;-77
2021/06/07 09:50:03;;;;;;;9.50;3.33;;;;;;;25.24;47.53;100427.78;126022;1099;104232;-78
2021/06/07 09:52:44;;;;;;;9.03;3.30;;;;;;;25.27;47.25;100431.30;125977;1099;104238;-76
2021/06/07 09:55:21;;;;;;;8.30;3.57;;;;;;;25.29;46.10;100431.25;125877;1099;104361;-75
2021/06/07 09:57:55;;;;;;;8.13;3.30;;;;;;;25.31;46.78;100424.06;126039;1099;104194;-75
2021/06/07 10:00:41;;;;;;;6.73;3.13;;;;;;;25.42;46.88;100419.28;126041;1097;104210;-77
2021/06/07 10:03:23;;;;;;;6.73;3.13;;;;;;;25.56;46.96;100423.41;126111;1098;104287;-75
2021/06/07 10:05:56;;;;;;;6.03;3.20;;;;;;;25.61;46.51;100410.72;126035;1099;104236;-75
2021/06/07 10:08:40;;;;;;;5.70;3.15;;;;;;;25.64;45.85;100413.31;126067;1099;104171;-75
2021/06/07 10:11:20;;;;;;;8.10;3.40;;;;;;;25.68;45.89;100409.63;125993;1096;104160;-74
2021/06/07 10:14:03;;;;;;;6.33;3.20;;;;;;;25.78;45.80;100407.55;125967;1096;104249;-77
2021/06/07 10:16:54;;;;;;;5.67;3.15;;;;;;;25.80;45.35;100416.44;125964;1099;104275;-75
2021/06/07 10:19:32;;;;;;;5.57;3.20;;;;;;;25.79;45.53;100409.33;125958;1096;104139;-75
2021/06/07 10:22:06;;;;;;;8.07;3.13;;;;;;;25.90;45.38;100411.67;125981;1096;104358;-75
2021/06/07 10:24:39;;;;;;;8.30;3.20;;;;;;;26.01;45.08;100412.30;126067;1098;104169;-76
2021/06/07 10:27:12;;;;;;;6.60;3.20;;;;;;;26.06;45.29;100402.27;125917;1099;104249;-77
2021/06/07 10:29:44;;;;;;;3.93;2.83;;;;;;;26.22;45.29;100402.68;125876;1099;105638;-76
2021/06/07 10:32:17;;;;;;;8.45;3.15;;;;;;;26.27;44.39;100407.92;126049;1099;104161;-77
2021/06/07 10:34:50;;;;;;;6.30;2.90;;;;;;;26.28;44.34;100391.73;125790;1096;104161;-75
2021/06/07 10:37:21;;;;;;;6.37;3.23;;;;;;;26.14;44.37;100385.91;125762;1099;104191;-75
2021/06/07 10:40:14;;;;;;;10.25;3.50;;;;;;;26.11;44.00;100394.94;125813;1099;104188;-76
2021/06/07 10:45:43;;;;;;;9.33;3.80;;;;;;;26.17;44.04;100381.31;125413;1093;103456;-75
2021/06/07 10:48:32;;;;;;;8.07;3.40;;;;;;;26.21;43.88;100395.56;124877;1102;104253;-75
2021/06/07 10:51:10;;;;;;;6.80;3.50;;;;;;;26.28;43.21;100390.86;124948;1102;104161;-76
2021/06/07 10:53:40;;;;;;;6.33;2.90;;;;;;;26.31;43.40;100383.57;125021;1102;104185;-78
2021/06/07 10:56:15;;;;;;;4.73;3.00;;;;;;;26.40;43.34;100394.95;124892;1102;104206;-77
2021/06/07 10:58:58;;;;;;;7.00;3.20;;;;;;;26.51;42.97;100377.56;124977;1102;104387;-76
2021/06/07 11:01:49;;;;;;;10.27;3.30;;;;;;;26.46;43.65;100373.24;125083;1102;105668;-76
2021/06/07 11:04:36;;;;;;;9.18;3.10;;;;;;;26.45;42.91;100376.88;124883;1102;104181;-77
2021/06/07 11:07:19;;;;;;;12.20;3.67;;;;;;;26.52;42.78;100360.50;124914;1102;104178;-77
2021/06/07 11:10:14;;;;;;;4.53;3.30;;;;;;;26.68;42.36;100365.41;125065;1102;104264;-76
2021/06/07 11:12:46;;;;;;;5.20;3.00;;;;;;;26.70;42.42;100368.92;125011;1103;104241;-76
2021/06/07 11:15:20;;;;;;;4.50;3.20;;;;;;;26.80;42.56;100356.02;124809;1105;104227;-75
2021/06/07 11:17:51;;;;;;;9.07;3.17;;;;;;;26.93;42.16;100356.48;124829;1102;104277;-78
2021/06/07 11:20:35;;;;;;;6.90;3.10;;;;;;;27.07;42.53;100346.13;125093;1102;104946;-77
2021/06/07 11:23:11;;;;;;;5.43;3.20;;;;;;;27.09;41.41;100368.48;124781;1103;104252;-78
2021/06/07 11:25:54;;;;;;;6.53;3.07;;;;;;;26.87;42.00;100345.00;124838;1105;104236;-79
2021/06/07 11:28:39;;;;;;;4.70;3.10;;;;;;;26.85;41.79;100343.31;124988;1102;104309;-78
2021/06/07 11:31:40;;;;;;;7.07;3.07;;;;;;;26.93;41.43;100337.62;124985;1106;104266;-79
2021/06/07 11:34:13;;;;;;;12.47;2.97;;;;;;;27.01;41.94;100332.88;125022;1102;111901;-77
2021/06/07 11:36:59;;;;;;;8.38;3.40;;;;;;;26.99;41.93;100332.94;124951;1102;104290;-80